createdAt,value
2018-11-25T00:00:10.353Z,3.40
2018-11-25T00:02:38.744Z,3.30
2018-11-25T00:05:07.743Z,3.30
2018-11-25T00:07:36.019Z,3.30
2018-11-25T00:10:04.575Z,3.30
2018-11-25T00:12:32.854Z,3.20
2018-11-25T00:15:01.099Z,3.20
2018-11-25T00:17:29.428Z,3.20
2018-11-25T00:19:57.756Z,3.10
2018-11-25T00:22:26.008Z,3.10
2018-11-25T00:24:54.245Z,3.10
2018-11-25T00:27:22.477Z,3.10
2018-11-25T00:29:51.409Z,3.00
2018-11-25T00:32:19.638Z,3.00
2018-11-25T00:34:47.873Z,3.00
2018-11-25T00:37:16.109Z,3.00
2018-11-25T00:39:44.477Z,3.00
2018-11-25T00:42:12.697Z,2.90
2018-11-25T00:44:41.025Z,2.90
2018-11-25T00:47:09.247Z,2.90
2018-11-25T00:49:37.481Z,2.80
2018-11-25T00:52:05.896Z,2.80
2018-11-25T00:54:34.125Z,2.80
2018-11-25T00:57:02.361Z,2.80
2018-11-25T00:59:30.595Z,2.70
2018-11-25T01:01:58.831Z,2.70
2018-11-25T01:04:27.084Z,2.70
2018-11-25T01:06:55.343Z,2.60
2018-11-25T01:09:23.561Z,2.60
2018-11-25T01:11:51.808Z,2.60
2018-11-25T01:14:20.060Z,2.60
2018-11-25T01:16:48.338Z,2.60
2018-11-25T01:19:16.555Z,2.50
2018-11-25T01:21:44.812Z,2.50
2018-11-25T01:24:13.036Z,2.50
2018-11-25T01:26:41.268Z,2.50
2018-11-25T01:29:09.507Z,2.40
2018-11-25T01:31:37.745Z,2.40
2018-11-25T01:34:06.329Z,2.40
2018-11-25T01:36:34.577Z,2.40
2018-11-25T01:39:02.824Z,2.40
2018-11-25T01:41:31.080Z,2.30
2018-11-25T01:43:59.335Z,2.40
2018-11-25T01:46:27.567Z,2.40
2018-11-25T01:48:55.805Z,2.40
2018-11-25T01:51:24.102Z,2.30
2018-11-25T01:53:52.324Z,2.30
2018-11-25T01:56:20.585Z,2.30
2018-11-25T01:58:48.805Z,2.30
2018-11-25T02:01:17.028Z,2.30
2018-11-25T02:03:45.294Z,2.30
2018-11-25T02:06:13.528Z,2.30
2018-11-25T02:08:41.762Z,2.30
2018-11-25T02:11:10.003Z,2.40
2018-11-25T02:13:38.227Z,2.40
2018-11-25T02:16:06.485Z,2.30
2018-11-25T02:18:34.701Z,2.40
2018-11-25T02:21:02.950Z,2.40
2018-11-25T02:23:31.285Z,2.40
2018-11-25T02:25:59.514Z,2.40
2018-11-25T02:28:27.758Z,2.40
2018-11-25T02:30:55.965Z,2.40
2018-11-25T02:33:24.248Z,2.40
2018-11-25T02:35:52.438Z,2.40
2018-11-25T02:38:20.670Z,2.40
2018-11-25T02:40:49.023Z,2.50
2018-11-25T02:43:17.208Z,2.50
2018-11-25T02:45:45.429Z,2.50
2018-11-25T02:48:13.701Z,2.50
2018-11-25T02:50:41.909Z,2.50
2018-11-25T02:53:10.128Z,2.50
2018-11-25T02:55:38.401Z,2.50
2018-11-25T02:58:06.628Z,2.50
2018-11-25T03:00:34.846Z,2.60
2018-11-25T03:03:03.055Z,2.50
2018-11-25T03:05:31.298Z,2.60
2018-11-25T03:07:59.530Z,2.60
2018-11-25T03:10:27.750Z,2.60
2018-11-25T03:12:56.055Z,2.60
2018-11-25T03:15:24.362Z,2.60
2018-11-25T03:17:52.584Z,2.60
2018-11-25T03:20:20.858Z,2.60
2018-11-25T03:22:49.158Z,2.70
2018-11-25T03:25:19.289Z,2.70
2018-11-25T03:27:47.598Z,2.70
2018-11-25T03:30:19.579Z,2.70
2018-11-25T03:32:48.662Z,2.70
2018-11-25T03:35:16.882Z,2.70
2018-11-25T03:37:45.134Z,2.70
2018-11-25T03:40:14.236Z,2.70
2018-11-25T03:42:42.465Z,2.70
2018-11-25T03:45:12.814Z,2.80
2018-11-25T03:47:41.069Z,2.70
2018-11-25T03:50:09.984Z,2.80
2018-11-25T03:52:38.207Z,2.80
2018-11-25T03:55:08.198Z,2.80
2018-11-25T03:57:36.559Z,2.80
2018-11-25T04:00:07.340Z,2.80
2018-11-25T04:02:35.618Z,2.80
2018-11-25T04:05:04.157Z,2.80
2018-11-25T04:07:32.390Z,2.90
2018-11-25T04:10:00.658Z,2.80
2018-11-25T04:12:28.918Z,2.80
2018-11-25T04:14:57.128Z,2.90
2018-11-25T04:17:25.336Z,2.90
2018-11-25T04:19:53.557Z,2.90
2018-11-25T04:22:21.816Z,2.90
2018-11-25T04:24:50.058Z,2.90
2018-11-25T04:27:18.299Z,2.90
2018-11-25T04:29:46.553Z,2.90
2018-11-25T04:32:14.763Z,2.90
2018-11-25T04:34:42.983Z,2.90
2018-11-25T04:37:11.232Z,3.00
2018-11-25T04:39:39.485Z,2.90
2018-11-25T04:44:42.258Z,3.00
2018-11-25T04:47:10.500Z,3.00
2018-11-25T04:49:38.730Z,3.00
2018-11-25T04:52:06.969Z,3.00
2018-11-25T04:54:35.219Z,3.00
2018-11-25T04:57:03.448Z,3.00
2018-11-25T04:59:31.710Z,3.00
2018-11-25T05:01:59.944Z,3.00
2018-11-25T05:04:28.236Z,3.10
2018-11-25T05:06:56.453Z,3.10
2018-11-25T05:09:24.689Z,3.00
2018-11-25T05:11:52.913Z,3.10
2018-11-25T05:14:21.150Z,3.00
2018-11-25T05:16:49.405Z,3.10
2018-11-25T05:19:17.635Z,3.10
2018-11-25T05:21:45.836Z,3.10
2018-11-25T05:24:14.061Z,3.10
2018-11-25T05:26:42.279Z,3.10
2018-11-25T05:29:10.553Z,3.10
2018-11-25T05:31:38.972Z,3.10
2018-11-25T05:34:07.205Z,3.10
2018-11-25T05:36:35.429Z,3.10
2018-11-25T05:39:03.880Z,3.10
2018-11-25T05:41:32.146Z,3.10
2018-11-25T05:44:00.360Z,3.10
2018-11-25T05:46:28.556Z,3.10
2018-11-25T05:48:56.792Z,3.10
2018-11-25T05:51:25.045Z,3.10
2018-11-25T05:53:53.270Z,3.10
2018-11-25T05:56:22.493Z,3.10
2018-11-25T05:58:50.716Z,3.10
2018-11-25T06:01:18.964Z,3.10
2018-11-25T06:03:47.178Z,3.10
2018-11-25T06:06:15.412Z,3.20
2018-11-25T06:08:43.668Z,3.20
2018-11-25T06:11:11.944Z,3.20
2018-11-25T06:13:40.196Z,3.20
2018-11-25T06:16:08.428Z,3.20
2018-11-25T06:18:36.693Z,3.20
2018-11-25T06:21:05.103Z,3.20
2018-11-25T06:23:33.336Z,3.20
2018-11-25T06:26:01.577Z,3.20
2018-11-25T06:28:29.804Z,3.20
2018-11-25T06:30:58.035Z,3.20
2018-11-25T06:33:26.248Z,3.20
2018-11-25T06:35:54.527Z,3.20
2018-11-25T06:38:22.761Z,3.20
2018-11-25T06:40:51.081Z,3.20
2018-11-25T06:43:19.296Z,3.20
2018-11-25T06:45:47.494Z,3.20
2018-11-25T06:48:15.704Z,3.20
2018-11-25T06:50:43.954Z,3.20
2018-11-25T06:53:12.174Z,3.20
2018-11-25T06:55:40.533Z,3.20
2018-11-25T06:58:08.779Z,3.20
2018-11-25T07:00:37.008Z,3.20
2018-11-25T07:03:05.566Z,3.20
2018-11-25T07:05:33.871Z,3.20
2018-11-25T07:08:02.278Z,3.20
2018-11-25T07:10:30.535Z,3.20
2018-11-25T07:12:58.807Z,3.20
2018-11-25T07:15:27.028Z,3.20
2018-11-25T07:17:55.304Z,3.20
2018-11-25T07:20:23.523Z,3.20
2018-11-25T07:22:51.729Z,3.20
2018-11-25T07:25:21.994Z,3.20
2018-11-25T07:27:50.306Z,3.20
2018-11-25T07:30:24.165Z,3.20
2018-11-25T07:32:52.421Z,3.20
2018-11-25T07:35:20.790Z,3.20
2018-11-25T07:37:49.038Z,3.20
2018-11-25T07:40:19.118Z,3.20
2018-11-25T07:42:47.359Z,3.20
2018-11-25T07:45:16.561Z,3.20
2018-11-25T07:47:44.832Z,3.20
2018-11-25T07:50:13.452Z,3.30
2018-11-25T07:52:42.418Z,3.30
2018-11-25T07:55:15.393Z,3.20
2018-11-25T07:57:43.734Z,3.20
2018-11-25T08:00:14.157Z,3.20
2018-11-25T08:02:42.385Z,3.30
2018-11-25T08:05:11.637Z,3.30
2018-11-25T08:07:39.909Z,3.30
2018-11-25T08:10:10.392Z,3.30
2018-11-25T08:12:38.612Z,3.30
2018-11-25T08:15:09.427Z,3.30
2018-11-25T08:17:37.902Z,3.30
2018-11-25T08:20:07.770Z,3.30
2018-11-25T08:22:36.052Z,3.30
2018-11-25T08:25:04.724Z,3.30
2018-11-25T08:27:32.973Z,3.30
2018-11-25T08:30:01.181Z,3.40
2018-11-25T08:32:29.407Z,3.40
2018-11-25T08:34:57.621Z,3.40
2018-11-25T08:37:25.854Z,3.40
2018-11-25T08:39:54.060Z,3.40
2018-11-25T08:42:22.302Z,3.40
2018-11-25T08:44:50.504Z,3.40
2018-11-25T08:47:18.708Z,3.40
2018-11-25T08:49:46.971Z,3.40
2018-11-25T08:52:15.183Z,3.40
2018-11-25T08:54:43.440Z,3.40
2018-11-25T08:57:11.960Z,3.40
2018-11-25T08:59:40.190Z,3.40
2018-11-25T09:02:08.417Z,3.50
2018-11-25T09:04:36.636Z,3.50
2018-11-25T09:07:04.900Z,3.50
2018-11-25T09:09:33.186Z,3.50
2018-11-25T09:12:01.414Z,3.50
2018-11-25T09:14:29.610Z,3.50
2018-11-25T09:16:57.826Z,3.50
2018-11-25T09:19:26.029Z,3.60
2018-11-25T09:21:54.236Z,3.60
2018-11-25T09:24:22.477Z,3.60
2018-11-25T09:26:50.705Z,3.60
2018-11-25T09:29:18.953Z,3.60
2018-11-25T09:31:47.188Z,3.60
2018-11-25T09:34:15.405Z,3.70
2018-11-25T09:36:43.633Z,3.70
2018-11-25T09:39:11.865Z,3.70
2018-11-25T09:41:40.085Z,3.70
2018-11-25T09:44:08.298Z,3.70
2018-11-25T09:46:42.566Z,3.80
2018-11-25T09:49:05.435Z,3.80
2018-11-25T09:51:33.693Z,3.80
2018-11-25T09:54:01.905Z,3.80
2018-11-25T09:56:30.124Z,3.80
2018-11-25T09:58:58.381Z,3.90
2018-11-25T10:01:26.593Z,3.90
2018-11-25T10:03:54.822Z,3.90
2018-11-25T10:06:23.366Z,4.00
2018-11-25T10:08:51.579Z,4.00
2018-11-25T10:11:19.790Z,4.00
2018-11-25T10:13:48.066Z,4.00
2018-11-25T10:16:16.373Z,4.00
2018-11-25T10:18:44.585Z,4.10
2018-11-25T10:21:12.794Z,4.10
2018-11-25T10:23:41.024Z,4.10
2018-11-25T10:26:09.238Z,4.10
2018-11-25T10:28:37.465Z,4.10
2018-11-25T10:31:05.901Z,4.20
2018-11-25T10:33:34.708Z,4.20
2018-11-25T10:36:04.635Z,4.20
2018-11-25T10:38:31.250Z,4.20
2018-11-25T10:40:59.492Z,4.20
2018-11-25T10:43:27.732Z,4.30
2018-11-25T10:45:55.938Z,4.30
2018-11-25T10:48:24.200Z,4.30
2018-11-25T10:50:52.408Z,4.30
2018-11-25T10:53:20.626Z,4.30
2018-11-25T10:55:48.860Z,4.30
2018-11-25T10:58:17.075Z,4.30
2018-11-25T11:00:50.723Z,4.40
2018-11-25T11:03:25.168Z,4.40
2018-11-25T11:05:58.618Z,4.40
2018-11-25T11:08:26.907Z,4.40
2018-11-25T11:10:55.227Z,4.40
2018-11-25T11:13:23.473Z,4.40
2018-11-25T11:15:51.725Z,4.50
2018-11-25T11:18:19.929Z,4.50
2018-11-25T11:20:48.137Z,4.50
2018-11-25T11:23:16.469Z,4.50
2018-11-25T11:25:44.678Z,4.50
2018-11-25T11:28:12.909Z,4.50
2018-11-25T11:30:41.154Z,4.60
2018-11-25T11:33:09.440Z,4.60
2018-11-25T11:35:37.661Z,4.60
2018-11-25T11:38:06.502Z,4.60
2018-11-25T11:40:34.703Z,4.60
2018-11-25T11:43:03.162Z,4.60
2018-11-25T11:45:31.497Z,4.60
2018-11-25T11:47:59.718Z,4.70
2018-11-25T11:50:27.949Z,4.70
2018-11-25T11:52:56.156Z,4.70
2018-11-25T11:55:24.369Z,4.70
2018-11-25T11:57:52.577Z,4.70
2018-11-25T12:00:31.283Z,4.70
2018-11-25T12:02:59.961Z,4.70
2018-11-25T12:05:28.205Z,4.70
2018-11-25T12:07:56.412Z,4.80
2018-11-25T12:10:25.400Z,4.80
2018-11-25T12:12:53.856Z,4.80
2018-11-25T12:15:30.249Z,4.80
2018-11-25T12:17:52.988Z,4.80
2018-11-25T12:20:22.097Z,4.90
2018-11-25T12:22:51.075Z,4.90
2018-11-25T12:25:19.281Z,4.90
2018-11-25T12:27:47.543Z,4.90
2018-11-25T12:30:16.471Z,4.90
2018-11-25T12:32:45.974Z,4.90
2018-11-25T12:35:15.134Z,4.90
2018-11-25T12:37:43.392Z,5.00
2018-11-25T12:40:12.716Z,5.00
2018-11-25T12:42:41.465Z,5.00
2018-11-25T12:45:13.028Z,5.00
2018-11-25T12:47:41.345Z,5.00
2018-11-25T12:50:10.972Z,5.00
2018-11-25T12:52:39.237Z,5.00
2018-11-25T12:55:09.374Z,5.00
2018-11-25T12:57:37.718Z,5.10
2018-11-25T13:00:12.173Z,5.10
2018-11-25T13:02:40.406Z,5.10
2018-11-25T13:05:08.645Z,5.10
2018-11-25T13:07:37.124Z,5.10
2018-11-25T13:10:05.601Z,5.10
2018-11-25T13:12:34.664Z,5.10
2018-11-25T13:15:02.933Z,5.10
2018-11-25T13:17:32.205Z,5.10
2018-11-25T13:20:00.433Z,5.10
2018-11-25T13:22:28.720Z,5.10
2018-11-25T13:24:56.931Z,5.20
2018-11-25T13:27:25.243Z,5.20
2018-11-25T13:29:53.441Z,5.20
2018-11-25T13:32:21.653Z,5.20
2018-11-25T13:34:49.864Z,5.20
2018-11-25T13:37:18.212Z,5.20
2018-11-25T13:39:46.589Z,5.20
2018-11-25T13:42:16.271Z,5.20
2018-11-25T13:44:45.070Z,5.20
2018-11-25T13:47:13.465Z,5.20
2018-11-25T13:49:41.880Z,5.20
2018-11-25T13:52:10.109Z,5.20
2018-11-25T13:54:38.591Z,5.20
2018-11-25T13:57:07.264Z,5.20
2018-11-25T13:59:35.477Z,5.20
2018-11-25T14:02:03.735Z,5.20
2018-11-25T14:04:32.018Z,5.20
2018-11-25T14:07:00.264Z,5.20
2018-11-25T14:09:29.549Z,5.20
2018-11-25T14:11:57.797Z,5.20
2018-11-25T14:14:26.026Z,5.20
2018-11-25T14:16:54.273Z,5.20
2018-11-25T14:19:22.504Z,5.20
2018-11-25T14:21:50.784Z,5.20
2018-11-25T14:24:19.070Z,5.20
2018-11-25T14:26:50.870Z,5.20
2018-11-25T14:29:19.150Z,5.20
2018-11-25T14:31:47.369Z,5.20
2018-11-25T14:34:15.745Z,5.20
2018-11-25T14:36:43.957Z,5.20
2018-11-25T14:39:13.034Z,5.20
2018-11-25T14:41:41.336Z,5.20
2018-11-25T14:44:10.366Z,5.20
2018-11-25T14:46:38.606Z,5.20
2018-11-25T14:49:07.479Z,5.20
2018-11-25T14:51:35.729Z,5.20
2018-11-25T14:54:04.591Z,5.10
2018-11-25T14:56:33.018Z,5.10
2018-11-25T14:59:01.286Z,5.10
2018-11-25T15:01:29.545Z,5.20
2018-11-25T15:03:58.229Z,5.20
2018-11-25T15:06:29.359Z,5.10
2018-11-25T15:08:54.753Z,5.10
2018-11-25T15:11:22.975Z,5.10
2018-11-25T15:13:51.300Z,5.10
2018-11-25T15:16:19.555Z,5.10
2018-11-25T15:18:47.918Z,5.10
2018-11-25T15:21:16.314Z,5.10
2018-11-25T15:23:44.889Z,5.10
2018-11-25T15:26:16.122Z,5.10
2018-11-25T15:28:44.437Z,5.10
2018-11-25T15:31:12.975Z,5.10
2018-11-25T15:33:41.245Z,5.10
2018-11-25T15:36:09.570Z,5.10
2018-11-25T15:38:37.813Z,5.00
2018-11-25T15:41:06.229Z,5.00
2018-11-25T15:43:34.475Z,5.00
2018-11-25T15:46:03.537Z,5.00
2018-11-25T15:48:32.414Z,5.00
2018-11-25T15:51:00.654Z,5.00
2018-11-25T15:53:28.911Z,5.00
2018-11-25T15:56:00.022Z,4.90
2018-11-25T15:58:39.542Z,4.90
2018-11-25T16:01:07.812Z,5.00
2018-11-25T16:03:37.030Z,4.90
2018-11-25T16:06:12.377Z,4.90
2018-11-25T16:08:41.580Z,4.90
2018-11-25T16:11:09.878Z,4.90
2018-11-25T16:13:38.407Z,4.90
2018-11-25T16:16:06.720Z,4.90
2018-11-25T16:18:34.932Z,4.90
2018-11-25T16:21:03.464Z,4.80
2018-11-25T16:23:31.916Z,4.80
2018-11-25T16:26:03.001Z,4.80
2018-11-25T16:28:33.407Z,4.80
2018-11-25T16:31:01.632Z,4.80
2018-11-25T16:33:29.854Z,4.80
2018-11-25T16:35:58.108Z,4.80
2018-11-25T16:38:26.417Z,4.80
2018-11-25T16:40:54.780Z,4.80
2018-11-25T16:43:22.986Z,4.80
2018-11-25T16:45:51.237Z,4.70
2018-11-25T16:48:19.718Z,4.70
2018-11-25T16:50:48.028Z,4.70
2018-11-25T16:53:16.271Z,4.70
2018-11-25T16:55:44.611Z,4.70
2018-11-25T16:58:12.825Z,4.70
2018-11-25T17:00:41.043Z,4.70
2018-11-25T17:03:09.279Z,4.70
2018-11-25T17:05:40.262Z,4.70
2018-11-25T17:08:16.546Z,4.70
2018-11-25T17:10:44.807Z,4.70
2018-11-25T17:13:13.017Z,4.70
2018-11-25T17:15:41.261Z,4.70
2018-11-25T17:18:09.493Z,4.70
2018-11-25T17:20:37.714Z,4.70
2018-11-25T17:23:06.353Z,4.70
2018-11-25T17:25:34.658Z,4.70
2018-11-25T17:28:02.899Z,4.70
2018-11-25T17:30:31.144Z,4.60
2018-11-25T17:32:59.346Z,4.70
2018-11-25T17:35:29.253Z,4.60
2018-11-25T17:37:57.503Z,4.60
2018-11-25T17:40:25.733Z,4.60
2018-11-25T17:42:54.027Z,4.70
2018-11-25T17:45:22.308Z,4.60
2018-11-25T17:47:50.569Z,4.70
2018-11-25T17:50:23.003Z,4.70
2018-11-25T17:52:51.337Z,4.60
2018-11-25T17:55:20.777Z,4.60
2018-11-25T17:57:49.044Z,4.60
2018-11-25T18:00:23.163Z,4.70
2018-11-25T18:02:51.450Z,4.60
2018-11-25T18:05:19.718Z,4.60
2018-11-25T18:07:47.973Z,4.60
2018-11-25T18:10:16.248Z,4.70
2018-11-25T18:12:44.487Z,4.60
2018-11-25T18:15:16.281Z,4.60
2018-11-25T18:17:49.256Z,4.60
2018-11-25T18:20:17.521Z,4.60
2018-11-25T18:22:48.161Z,4.60
2018-11-25T18:25:16.485Z,4.60
2018-11-25T18:27:44.733Z,4.60
2018-11-25T18:30:14.493Z,4.70
2018-11-25T18:32:43.385Z,4.60
2018-11-25T18:35:11.721Z,4.60
2018-11-25T18:37:39.972Z,4.60
2018-11-25T18:40:13.690Z,4.60
2018-11-25T18:42:42.608Z,4.60
2018-11-25T18:45:14.142Z,4.60
2018-11-25T18:47:43.523Z,4.60
2018-11-25T18:50:12.969Z,4.60
2018-11-25T18:52:41.579Z,4.70
2018-11-25T18:55:08.837Z,4.60
2018-11-25T18:57:37.071Z,4.60
2018-11-25T19:00:08.926Z,4.60
2018-11-25T19:02:40.261Z,4.60
2018-11-25T19:05:08.511Z,4.60
2018-11-25T19:07:36.955Z,4.60
2018-11-25T19:10:12.652Z,4.60
2018-11-25T19:12:44.283Z,4.60
2018-11-25T19:15:12.514Z,4.60
2018-11-25T19:17:41.278Z,4.60
2018-11-25T19:20:12.290Z,4.60
2018-11-25T19:22:41.541Z,4.60
2018-11-25T19:25:11.141Z,4.60
2018-11-25T19:27:39.482Z,4.60
2018-11-25T19:30:12.558Z,4.60
2018-11-25T19:32:40.827Z,4.60
2018-11-25T19:35:10.662Z,4.60
2018-11-25T19:37:38.887Z,4.60
2018-11-25T19:40:14.018Z,4.70
2018-11-25T19:42:42.567Z,4.60
2018-11-25T19:45:12.285Z,4.70
2018-11-25T19:47:40.553Z,4.60
2018-11-25T19:50:11.884Z,4.60
2018-11-25T19:52:40.101Z,4.60
2018-11-25T19:55:08.397Z,4.60
2018-11-25T19:57:40.727Z,4.60
2018-11-25T20:00:15.401Z,4.70
2018-11-25T20:02:43.599Z,4.60
2018-11-25T20:05:12.690Z,4.60
2018-11-25T20:07:41.364Z,4.60
2018-11-25T20:10:11.730Z,4.60
2018-11-25T20:12:40.817Z,4.60
2018-11-25T20:15:12.007Z,4.70
2018-11-25T20:17:40.229Z,4.70
2018-11-25T20:20:12.291Z,4.70
2018-11-25T20:22:40.557Z,4.70
2018-11-25T20:25:09.813Z,4.60
2018-11-25T20:27:43.353Z,4.60
2018-11-25T20:30:12.494Z,4.60
2018-11-25T20:32:46.015Z,4.60
2018-11-25T20:35:14.222Z,4.70
2018-11-25T20:39:51.866Z,4.70
2018-11-25T20:42:20.130Z,4.70
2018-11-25T20:44:48.360Z,4.60
2018-11-25T20:47:16.721Z,4.70
2018-11-25T20:49:44.935Z,4.70
2018-11-25T20:52:18.471Z,4.70
2018-11-25T20:54:46.725Z,4.70
2018-11-25T20:57:15.017Z,4.70
2018-11-25T20:59:43.237Z,4.70
2018-11-25T21:02:11.540Z,4.70
2018-11-25T21:04:39.798Z,4.70
2018-11-25T21:07:09.009Z,4.70
2018-11-25T21:09:37.234Z,4.70
2018-11-25T21:12:05.482Z,4.70
2018-11-25T21:14:33.745Z,4.70
2018-11-25T21:17:01.965Z,4.70
2018-11-25T21:19:30.297Z,4.70
2018-11-25T21:21:58.533Z,4.70
2018-11-25T21:24:26.754Z,4.70
2018-11-25T21:26:54.968Z,4.70
2018-11-25T21:29:23.198Z,4.70
2018-11-25T21:31:51.424Z,4.70
2018-11-25T21:34:19.643Z,4.70
2018-11-25T21:36:47.904Z,4.70
2018-11-25T21:39:16.284Z,4.70
2018-11-25T21:41:44.569Z,4.70
2018-11-25T21:44:12.874Z,4.70
2018-11-25T21:46:41.406Z,4.70
2018-11-25T21:49:09.711Z,4.70
2018-11-25T21:51:38.191Z,4.80
2018-11-25T21:54:06.532Z,4.70
2018-11-25T21:56:34.986Z,4.70
2018-11-25T21:59:03.445Z,4.70
2018-11-25T22:01:31.844Z,4.70
2018-11-25T22:04:00.125Z,4.70
2018-11-25T22:06:28.478Z,4.70
2018-11-25T22:08:56.706Z,4.70
2018-11-25T22:11:24.934Z,4.70
2018-11-25T22:13:53.140Z,4.70
2018-11-25T22:16:21.377Z,4.70
2018-11-25T22:18:49.960Z,4.70
2018-11-25T22:21:18.216Z,4.80
2018-11-25T22:23:46.439Z,4.80
2018-11-25T22:26:14.660Z,4.80
2018-11-25T22:28:42.997Z,4.80
2018-11-25T22:31:11.237Z,4.80
2018-11-25T22:33:39.449Z,4.80
2018-11-25T22:36:07.657Z,4.80
2018-11-25T22:38:35.946Z,4.80
2018-11-25T22:41:04.242Z,4.80
2018-11-25T22:43:32.496Z,4.80
2018-11-25T22:46:00.721Z,4.80
2018-11-25T22:48:28.979Z,4.80
2018-11-25T22:50:57.184Z,4.80
2018-11-25T22:53:25.389Z,4.80
2018-11-25T22:55:53.600Z,4.80
2018-11-25T22:58:21.797Z,4.80
2018-11-25T23:00:52.186Z,4.80
2018-11-25T23:03:20.830Z,4.80
2018-11-25T23:06:01.048Z,4.80
2018-11-25T23:08:29.276Z,4.80
2018-11-25T23:10:57.489Z,4.80
2018-11-25T23:13:25.684Z,4.80
2018-11-25T23:15:53.897Z,4.80
2018-11-25T23:18:22.266Z,4.80
2018-11-25T23:20:51.769Z,4.80
2018-11-25T23:23:19.981Z,4.80
2018-11-25T23:25:48.221Z,4.80
2018-11-25T23:28:16.425Z,4.80
2018-11-25T23:30:44.621Z,4.80
2018-11-25T23:33:12.844Z,4.80
2018-11-25T23:35:41.061Z,4.80
2018-11-25T23:38:09.272Z,4.80
2018-11-25T23:40:37.573Z,4.80
2018-11-25T23:43:06.355Z,4.80
2018-11-25T23:45:34.565Z,4.90
2018-11-25T23:48:02.785Z,4.80
2018-11-25T23:50:31.078Z,4.80
2018-11-25T23:52:59.264Z,4.80
2018-11-25T23:55:27.576Z,4.90
2018-11-25T23:57:55.802Z,4.90
